Huvudsida
METAR-TAF:

METAR-TAF

Flygplatser :

Chengdu, Kina

Chengdu Shuangliu International Airport

latitud: 30-40N, longitud: 104-01E, höjd: 508 m

Aktuellt väderrapport

Denna rapport gjordes för 1 timme och 13 minuter sedan, klockan 14:00 UTC
Vind 2 kt från nord/nordväst
Temperatur 9°C
Fuktighet 71%
Tryck 1024 hPa
Sikt 10 km eller mer
Spridda moln på en höjd av 5000 ft

METAR: ZUUU 181400Z 33001MPS 9999 SCT050 09/04 Q1024 NOSIG

Tid: 23:13 (15:13 UTC)

Väderprognos

Denna rapport gjordes för 6 timmar och 57 minuter sedan, klockan 08:16 UTC
Prognos gäller från 18 kl. 12 UTC till 19 kl. 12 UTC
Vind 6 kt från nord/nordost
Sikt: 3000 m
Spridda moln på en höjd av 5000 ft
fuktdis
Blir
från 18 kl. 21 UTC till 18 kl. 22 UTC
Sikt: 2500 m
Blir
från 19 kl. 02 UTC till 19 kl. 03 UTC
Sikt: 3000 m

TAF: ZUUU 180816Z 1812/1912 02003MPS 3000 BR SCT050 TX12/1907Z TN05/1823Z BECMG 1821/1822 2500 BECMG 1902/1903 3000

Aktuella väderrapporter och prognoser från 4000 flygplatser (METAR- och TAF-rapporter).

De tillgängliga stationerna syns som gula och röda prickar på kartan.

För musen över prickarna för att se namnen på stationerna.

Klicka sedan för att få väderrapporter och prognoser.

För att ändra kartan: Klicka på de gröna knapparna med ett svart kors på för att zooma in; den gröna knappen med ett streck på för att zooma ut; eller på de gröna pilarna för angränsande kartor.


METAR-TAF: